Time;durP1;ratioP1;P1;durP2;ratioP2;P2;SDS_P1;SDS_P2;PMS_P1;PMS_P2;Temp;Humidity;BMP_temperature;BMP_pressure;BME280_temperature;BME280_humidity;BME280_pressure;Samples;Min_cycle;Max_cycle;Signal;HPM_P1;HPM_P2
2021/08/26 00:06:49;;;;;;;;;;;;;;;19.80;62.98;100495.31;4915250;28;96756;-74
2021/08/26 00:09:17;;;;;;;;;;;;;;;19.66;63.80;100490.16;4923774;28;96825;-74
2021/08/26 00:11:46;;;;;;;;;;;;;;;19.55;64.69;100488.31;4964928;28;98964;-75
2021/08/26 00:14:13;;;;;;;;;;;;;;;19.17;65.42;100493.00;4970887;28;99222;-74
2021/08/26 00:16:40;;;;;;;;;;;;;;;19.32;64.69;100489.16;4973670;28;97106;-75
2021/08/26 00:19:06;;;;;;;;;;;;;;;19.35;63.96;100488.94;4973289;28;97007;-75
2021/08/26 00:21:33;;;;;;;;;;;;;;;19.65;63.86;100493.81;4972390;28;98941;-75
2021/08/26 00:23:59;;;;;;;;;;;;;;;19.62;63.53;100494.06;4971925;28;99097;-75
2021/08/26 00:26:25;;;;;;;;;;;;;;;19.64;63.21;100495.63;4974396;28;96791;-75
2021/08/26 00:28:53;;;;;;;;;;;;;;;19.40;63.77;100498.34;4970548;28;97131;-75
2021/08/26 00:31:19;;;;;;;;;;;;;;;19.31;64.11;100485.63;4974340;28;98932;-76
2021/08/26 00:33:45;;;;;;;;;;;;;;;19.27;64.62;100492.22;4969725;28;99120;-75
2021/08/26 00:36:12;;;;;;;;;;;;;;;19.07;65.42;100484.81;4973725;28;97080;-75
2021/08/26 00:38:38;;;;;;;;;;;;;;;19.53;63.36;100478.69;4974032;28;97041;-74
2021/08/26 00:41:04;;;;;;;;;;;;;;;19.64;63.10;100473.34;4973851;28;99220;-74
2021/08/26 00:43:31;;;;;;;;;;;;;;;19.42;63.51;100472.31;4971413;28;98795;-74
2021/08/26 00:45:59;;;;;;;;;;;;;;;19.68;62.62;100464.97;4973140;28;97719;-74
2021/08/26 00:48:26;;;;;;;;;;;;;;;19.59;63.55;100462.13;4971667;28;96862;-74
2021/08/26 00:50:53;;;;;;;;;;;;;;;19.09;64.75;100467.69;4968935;28;98950;-74
2021/08/26 00:53:20;;;;;;;;;;;;;;;19.46;63.51;100460.41;4972031;28;98885;-74
2021/08/26 00:55:46;;;;;;;;;;;;;;;19.69;62.85;100444.38;4972714;28;96967;-75
2021/08/26 00:58:13;;;;;;;;;;;;;;;19.77;62.55;100444.59;4973581;28;97435;-75
2021/08/26 01:00:39;;;;;;;;;;;;;;;19.90;62.28;100450.72;4969880;28;98960;-75
2021/08/26 01:03:09;;;;;;;;;;;;;;;19.73;62.19;100443.16;4972889;28;99337;-75
2021/08/26 01:05:38;;;;;;;;;;;;;;;19.72;62.56;100450.34;4971781;28;96860;-75
2021/08/26 01:08:07;;;;;;;;;;;;;;;19.63;62.50;100447.50;4960485;28;98763;-74
2021/08/26 01:10:35;;;;;;;;;;;;;;;19.49;63.34;100438.69;4971988;28;99423;-75
2021/08/26 01:13:03;;;;;;;;;;;;;;;19.39;63.90;100445.72;4972309;28;99196;-75
2021/08/26 01:15:29;;;;;;;;;;;;;;;19.74;62.64;100439.50;4973500;28;96922;-75
2021/08/26 01:17:57;;;;;;;;;;;;;;;19.46;62.79;100435.41;4971492;28;98464;-74
2021/08/26 01:20:24;;;;;;;;;;;;;;;19.42;63.67;100434.78;4970392;28;98926;-74
2021/08/26 01:22:51;;;;;;;;;;;;;;;19.85;62.08;100435.00;4972357;28;98855;-73
2021/08/26 01:25:19;;;;;;;;;;;;;;;19.20;64.22;100441.88;4971255;28;96809;-74
2021/08/26 01:27:49;;;;;;;;;;;;;;;19.26;64.07;100444.97;4972518;28;96985;-74
2021/08/26 01:30:16;;;;;;;;;;;;;;;19.62;62.87;100440.47;4971830;28;99202;-73
2021/08/26 01:32:43;;;;;;;;;;;;;;;19.58;63.23;100441.66;4971690;28;99096;-74
2021/08/26 01:35:11;;;;;;;;;;;;;;;19.84;62.05;100440.47;4969885;28;98502;-74
2021/08/26 01:37:37;;;;;;;;;;;;;;;18.64;65.70;100444.31;4972760;28;96938;-73
2021/08/26 01:40:04;;;;;;;;;;;;;;;19.00;64.69;100432.69;4971368;28;98929;-74
2021/08/26 01:42:30;;;;;;;;;;;;;;;19.33;63.36;100440.84;4967057;28;98917;-74
2021/08/26 01:44:58;;;;;;;;;;;;;;;19.52;63.43;100439.44;4969763;28;97136;-74
2021/08/26 01:47:24;;;;;;;;;;;;;;;19.25;63.08;100437.03;4971718;28;96852;-74
2021/08/26 01:49:52;;;;;;;;;;;;;;;19.39;63.27;100431.47;4971703;28;99001;-74
2021/08/26 01:52:19;;;;;;;;;;;;;;;19.29;63.32;100425.97;4970372;28;99297;-74
2021/08/26 01:54:48;;;;;;;;;;;;;;;19.31;63.27;100433.88;4971577;28;98491;-73
2021/08/26 01:57:14;;;;;;;;;;;;;;;19.37;62.76;100430.72;4971926;28;97025;-74
2021/08/26 01:59:40;;;;;;;;;;;;;;;19.04;63.41;100434.16;4970092;28;98955;-74
2021/08/26 02:02:08;;;;;;;;;;;;;;;18.69;64.82;100440.34;4959829;28;98829;-74
2021/08/26 02:04:34;;;;;;;;;;;;;;;19.24;63.04;100429.97;4969883;28;98726;-75
2021/08/26 02:07:00;;;;;;;;;;;;;;;19.06;63.32;100427.72;4970891;28;97098;-74
2021/08/26 02:09:26;;;;;;;;;;;;;;;19.43;62.31;100427.56;4973148;28;99021;-74
2021/08/26 02:11:53;;;;;;;;;;;;;;;19.30;62.51;100425.00;4969848;28;99271;-74
2021/08/26 02:14:19;;;;;;;;;;;;;;;19.05;63.05;100430.50;4973048;28;96850;-74
2021/08/26 02:16:45;;;;;;;;;;;;;;;19.23;62.85;100428.28;4970332;28;97144;-73
2021/08/26 02:19:13;;;;;;;;;;;;;;;19.13;62.68;100422.75;4970315;28;98878;-73
2021/08/26 02:21:39;;;;;;;;;;;;;;;18.96;63.15;100412.47;4971303;28;99595;-73
2021/08/26 02:24:06;;;;;;;;;;;;;;;18.80;63.47;100412.75;4972029;28;96976;-73
2021/08/26 02:26:32;;;;;;;;;;;;;;;18.89;63.20;100422.78;4971826;28;97171;-73
2021/08/26 02:28:58;;;;;;;;;;;;;;;18.83;63.25;100423.25;4971237;28;99399;-73
2021/08/26 02:31:24;;;;;;;;;;;;;;;19.30;61.96;100413.41;4970180;28;99304;-73
2021/08/26 02:33:51;;;;;;;;;;;;;;;18.71;63.20;100416.13;4969440;28;98539;-73
2021/08/26 02:36:18;;;;;;;;;;;;;;;19.16;62.47;100421.69;4971167;28;97904;-73
2021/08/26 02:38:45;;;;;;;;;;;;;;;18.64;64.06;100421.06;4971249;28;99241;-74
2021/08/26 02:41:12;;;;;;;;;;;;;;;18.75;63.85;100417.59;4971440;28;97601;-74
2021/08/26 02:43:39;;;;;;;;;;;;;;;19.17;62.14;100415.31;4970110;28;96873;-74
2021/08/26 02:46:05;;;;;;;;;;;;;;;18.96;62.97;100412.47;4969707;28;97755;-73
2021/08/26 02:48:31;;;;;;;;;;;;;;;19.28;62.40;100412.69;4970456;28;100368;-74
2021/08/26 02:50:57;;;;;;;;;;;;;;;19.06;62.70;100402.75;4969847;28;98847;-75
2021/08/26 02:53:25;;;;;;;;;;;;;;;18.88;63.24;100405.03;4968598;28;96835;-75
2021/08/26 02:55:51;;;;;;;;;;;;;;;19.20;62.41;100412.44;4971466;28;98011;-74
2021/08/26 02:58:17;;;;;;;;;;;;;;;19.67;61.13;100412.31;4970964;28;98941;-74
2021/08/26 03:00:44;;;;;;;;;;;;;;;19.22;61.66;100405.13;4969122;28;98873;-75
2021/08/26 03:03:10;;;;;;;;;;;;;;;19.14;62.60;100415.56;4968460;28;97715;-75
2021/08/26 03:05:36;;;;;;;;;;;;;;;19.32;61.79;100409.66;4966755;28;97804;-75
2021/08/26 03:08:03;;;;;;;;;;;;;;;19.52;61.38;100418.88;4955115;28;98826;-75
2021/08/26 03:10:30;;;;;;;;;;;;;;;19.70;60.56;100424.59;4970571;28;99014;-74
2021/08/26 03:12:56;;;;;;;;;;;;;;;19.54;61.04;100406.22;4968719;28;97170;-74
2021/08/26 03:15:23;;;;;;;;;;;;;;;19.18;61.87;100414.34;4966527;28;98533;-74
2021/08/26 03:17:49;;;;;;;;;;;;;;;18.84;63.44;100414.22;4978210;28;99003;-75
2021/08/26 03:20:15;;;;;;;;;;;;;;;19.08;62.41;100416.91;4968903;28;102744;-74
2021/08/26 03:22:42;;;;;;;;;;;;;;;19.21;62.18;100409.63;4971063;28;96970;-74
2021/08/26 03:25:08;;;;;;;;;;;;;;;18.84;62.76;100416.09;4969246;28;99102;-74
2021/08/26 03:27:36;;;;;;;;;;;;;;;18.89;62.81;100411.22;4973868;28;98976;-74
2021/08/26 03:30:02;;;;;;;;;;;;;;;18.78;62.81;100413.84;4973022;28;98881;-74
2021/08/26 03:32:29;;;;;;;;;;;;;;;18.76;63.27;100419.31;4972097;28;96956;-73
2021/08/26 03:34:55;;;;;;;;;;;;;;;19.30;61.83;100416.09;4975846;28;96896;-74
2021/08/26 03:37:21;;;;;;;;;;;;;;;18.78;62.87;100413.84;4972035;28;98950;-74
2021/08/26 03:39:47;;;;;;;;;;;;;;;19.14;62.01;100421.78;4975498;28;99067;-74
2021/08/26 03:42:14;;;;;;;;;;;;;;;19.05;61.96;100415.28;4972332;28;97017;-74
2021/08/26 03:44:42;;;;;;;;;;;;;;;18.81;62.55;100419.81;4974529;28;96942;-73
2021/08/26 03:47:08;;;;;;;;;;;;;;;19.08;61.67;100420.44;4972478;28;99388;-74
2021/08/26 03:49:35;;;;;;;;;;;;;;;19.17;61.56;100421.53;4974156;28;98890;-74
2021/08/26 03:52:02;;;;;;;;;;;;;;;18.95;62.38;100426.84;4973805;28;96850;-74
2021/08/26 03:54:28;;;;;;;;;;;;;;;18.81;62.49;100417.16;4975193;28;96800;-74
2021/08/26 03:56:55;;;;;;;;;;;;;;;18.79;62.62;100405.69;4971304;28;99213;-74
2021/08/26 03:59:21;;;;;;;;;;;;;;;18.86;62.57;100416.78;4975331;28;99614;-73
2021/08/26 04:01:49;;;;;;;;;;;;;;;19.08;61.80;100416.91;4972100;28;98253;-74
2021/08/26 04:04:15;;;;;;;;;;;;;;;18.76;63.20;100422.00;4955715;28;97826;-74
2021/08/26 04:06:41;;;;;;;;;;;;;;;18.81;62.99;100425.19;4969018;28;98980;-73
2021/08/26 04:09:08;;;;;;;;;;;;;;;18.83;63.42;100422.41;4973443;28;99035;-73
2021/08/26 04:11:34;;;;;;;;;;;;;;;18.93;62.43;100418.91;4972847;28;96861;-74
2021/08/26 04:14:00;;;;;;;;;;;;;;;18.94;62.43;100423.28;4968052;28;97028;-74
2021/08/26 04:16:27;;;;;;;;;;;;;;;18.72;63.00;100417.81;4975009;28;97746;-74
2021/08/26 04:18:54;;;;;;;;;;;;;;;19.26;61.70;100411.94;4973508;28;99132;-74
2021/08/26 04:21:20;;;;;;;;;;;;;;;19.03;62.26;100414.53;4973246;28;97012;-74
2021/08/26 04:23:47;;;;;;;;;;;;;;;19.31;61.38;100407.09;4974588;28;96915;-74
2021/08/26 04:26:13;;;;;;;;;;;;;;;18.92;62.42;100416.34;4975426;28;99029;-74
2021/08/26 04:28:39;;;;;;;;;;;;;;;19.14;61.79;100413.75;4973593;28;99217;-74
2021/08/26 04:31:05;;;;;;;;;;;;;;;18.97;62.46;100422.22;4973739;28;97095;-75
2021/08/26 04:33:31;;;;;;;;;;;;;;;19.17;61.62;100410.81;4965775;28;97433;-75
2021/08/26 04:35:59;;;;;;;;;;;;;;;19.14;61.75;100412.91;4974166;28;98872;-75
2021/08/26 04:38:25;;;;;;;;;;;;;;;18.98;62.42;100407.84;4973172;28;98843;-74
2021/08/26 04:40:53;;;;;;;;;;;;;;;19.47;61.05;100405.84;4974253;28;96700;-74
2021/08/26 04:43:19;;;;;;;;;;;;;;;18.36;64.67;100412.50;4964209;28;97234;-75
2021/08/26 04:45:45;;;;;;;;;;;;;;;18.99;62.49;100409.56;4970117;28;99002;-74
2021/08/26 04:48:11;;;;;;;;;;;;;;;18.89;63.34;100404.06;4975497;28;99229;-74
2021/08/26 04:50:38;;;;;;;;;;;;;;;18.83;63.14;100398.31;4970660;28;97319;-74
2021/08/26 04:53:05;;;;;;;;;;;;;;;18.80;63.35;100398.53;4973919;28;97829;-74
2021/08/26 04:55:32;;;;;;;;;;;;;;;18.84;63.71;100397.34;4971342;28;98906;-74
2021/08/26 04:57:58;;;;;;;;;;;;;;;19.37;61.45;100396.75;4954851;28;99211;-74
2021/08/26 05:00:24;;;;;;;;;;;;;;;19.73;60.73;100394.91;4966340;28;96915;-74
2021/08/26 05:02:50;;;;;;;;;;;;;;;18.88;62.78;100388.09;4972902;28;96767;-74
2021/08/26 05:05:17;;;;;;;;;;;;;;;19.22;61.95;100386.38;4968804;28;99022;-74
2021/08/26 05:07:43;;;;;;;;;;;;;;;19.39;61.36;100394.81;4972923;28;99253;-74
2021/08/26 05:10:11;;;;;;;;;;;;;;;18.84;62.93;100394.66;4973274;28;96972;-73
2021/08/26 05:12:37;;;;;;;;;;;;;;;19.30;61.65;100391.97;4974807;28;96958;-75
2021/08/26 05:15:04;;;;;;;;;;;;;;;19.59;60.52;100392.44;4971986;28;98950;-74
2021/08/26 05:17:30;;;;;;;;;;;;;;;19.04;62.19;100386.81;4973208;28;98825;-74
2021/08/26 05:19:56;;;;;;;;;;;;;;;19.62;60.67;100385.03;4972001;28;96832;-73
2021/08/26 05:22:23;;;;;;;;;;;;;;;19.40;61.04;100383.13;4968844;28;98070;-74
2021/08/26 05:24:51;;;;;;;;;;;;;;;19.03;61.98;100401.16;4973368;28;98896;-73
2021/08/26 05:27:18;;;;;;;;;;;;;;;18.98;61.97;100399.81;4974772;28;99470;-74
2021/08/26 05:29:44;;;;;;;;;;;;;;;19.41;61.00;100398.25;4964661;28;96814;-76
2021/08/26 05:32:11;;;;;;;;;;;;;;;19.63;60.29;100407.28;4969533;28;97036;-74
2021/08/26 05:34:37;;;;;;;;;;;;;;;19.64;60.05;100403.66;4974112;28;99300;-74
2021/08/26 05:37:04;;;;;;;;;;;;;;;19.74;60.16;100418.91;4975676;28;98855;-75
2021/08/26 05:39:30;;;;;;;;;;;;;;;19.80;59.66;100417.56;4958285;28;96862;-74
2021/08/26 05:41:56;;;;;;;;;;;;;;;19.39;60.59;100421.63;4964922;28;97619;-74
2021/08/26 05:44:24;;;;;;;;;;;;;;;19.42;60.51;100425.91;4973802;28;99174;-73
2021/08/26 05:46:50;;;;;;;;;;;;;;;19.28;61.58;100426.94;4970467;28;99120;-75
2021/08/26 05:49:16;;;;;;;;;;;;;;;19.47;60.96;100416.56;4973785;28;96771;-75
2021/08/26 05:51:43;;;;;;;;;;;;;;;19.65;60.04;100414.25;4970981;28;97699;-75
2021/08/26 05:54:09;;;;;;;;;;;;;;;19.97;59.56;100419.75;4966739;28;100613;-74
2021/08/26 05:56:35;;;;;;;;;;;;;;;19.66;60.13;100418.66;4971161;28;99156;-74
2021/08/26 05:59:02;;;;;;;;;;;;;;;19.16;61.62;100424.34;4972025;28;96820;-75
2021/08/26 06:01:30;;;;;;;;;;;;;;;19.17;61.74;100421.53;4973201;28;99054;-74
2021/08/26 06:03:56;;;;;;;;;;;;;;;19.36;61.10;100424.50;4972424;28;98833;-74
2021/08/26 06:06:23;;;;;;;;;;;;;;;19.71;60.39;100418.28;4970245;28;99197;-76
2021/08/26 06:08:50;;;;;;;;;;;;;;;19.82;60.27;100421.81;4973350;28;96733;-74
2021/08/26 06:11:16;;;;;;;;;;;;;;;19.63;60.41;100420.69;4968724;28;97532;-74
2021/08/26 06:13:42;;;;;;;;;;;;;;;19.53;60.86;100430.44;4972237;28;99295;-74
2021/08/26 06:16:08;;;;;;;;;;;;;;;19.87;59.77;100435.75;4970148;28;98863;-76
2021/08/26 06:18:36;;;;;;;;;;;;;;;19.13;61.69;100441.50;4972375;28;96741;-75
2021/08/26 06:21:02;;;;;;;;;;;;;;;19.56;61.01;100435.59;4970883;28;97843;-74
2021/08/26 06:23:29;;;;;;;;;;;;;;;19.44;61.01;100432.81;4968374;28;100144;-74
2021/08/26 06:25:55;;;;;;;;;;;;;;;19.52;60.77;100436.78;4972454;28;98829;-74
2021/08/26 06:28:21;;;;;;;;;;;;;;;19.38;61.39;100444.00;4970019;28;98823;-75
2021/08/26 06:30:48;;;;;;;;;;;;;;;19.87;60.62;100440.25;4973271;28;96913;-74
2021/08/26 06:33:14;;;;;;;;;;;;;;;20.73;57.09;100440.44;4970383;28;98908;-75
2021/08/26 06:35:42;;;;;;;;;;;;;;;21.15;55.53;100440.50;4972498;28;98806;-75
2021/08/26 06:38:08;;;;;;;;;;;;;;;21.69;53.86;100451.09;4971956;28;99039;-74
2021/08/26 06:40:34;;;;;;;;;;;;;;;20.99;55.54;100446.31;4972879;28;96817;-74
2021/08/26 06:43:01;;;;;;;;;;;;;;;21.09;54.85;100448.09;4969659;28;97694;-74
2021/08/26 06:45:27;;;;;;;;;;;;;;;21.07;55.15;100444.69;4973747;28;98780;-74
2021/08/26 06:47:53;;;;;;;;;;;;;;;20.30;57.24;100434.97;4972451;28;97394;-74
2021/08/26 06:50:20;;;;;;;;;;;;;;;20.46;56.28;100450.75;4973693;28;96964;-74
2021/08/26 06:52:47;;;;;;;;;;;;;;;20.52;56.27;100442.19;4970390;28;98850;-74
2021/08/26 06:55:14;;;;;;;;;;;;;;;20.35;56.65;100446.22;4973040;28;98927;-73
2021/08/26 06:57:40;;;;;;;;;;;;;;;20.76;55.69;100445.53;4973084;28;97450;-73
2021/08/26 07:00:07;;;;;;;;;;;;;;;21.01;54.83;100461.31;4973791;28;96965;-75
2021/08/26 07:02:33;;;;;;;;;;;;;;;21.25;54.01;100457.59;4973643;28;99377;-75
2021/08/26 07:04:59;;;;;;;;;;;;;;;21.11;54.86;100460.56;4976731;28;98762;-76
2021/08/26 07:07:26;;;;;;;;;;;;;;;21.11;55.19;100455.19;4971798;28;98961;-77
2021/08/26 07:09:53;;;;;;;;;;;;;;;20.81;55.57;100464.78;4971219;28;97667;-73
2021/08/26 07:12:20;;;;;;;;;;;;;;;20.62;55.88;100459.22;4969991;28;98954;-74
2021/08/26 07:14:46;;;;;;;;;;;;;;;21.37;53.49;100452.03;4971414;28;101443;-74
2021/08/26 07:17:12;;;;;;;;;;;;;;;21.24;53.86;100447.84;4972184;28;98539;-75
2021/08/26 07:19:39;;;;;;;;;;;;;;;21.44;53.24;100453.22;4970629;28;97684;-75
2021/08/26 07:22:05;;;;;;;;;;;;;;;21.74;52.24;100444.34;4968262;28;99689;-75
2021/08/26 07:24:31;;;;;;;;;;;;;;;21.58;51.65;100441.28;4969882;28;99317;-74
2021/08/26 07:26:59;;;;;;;;;;;;;;;21.30;52.19;100458.06;4970611;28;98030;-74
2021/08/26 07:29:25;;;;;;;;;;;;;;;22.00;50.30;100447.47;4971001;28;98709;-74
2021/08/26 07:31:51;;;;;;;;;;;;;;;21.54;51.96;100450.59;4969397;28;98736;-74
2021/08/26 07:34:18;;;;;;;;;;;;;;;21.53;51.78;100448.88;4969909;28;99086;-74
2021/08/26 07:36:44;;;;;;;;;;;;;;;21.36;52.02;100452.16;4972964;28;97032;-73
2021/08/26 07:39:10;;;;;;;;;;;;;;;22.28;50.08;100453.97;4972432;28;97675;-73
2021/08/26 07:41:37;;;;;;;;;;;;;;;21.86;50.61;100448.66;4971186;28;98899;-73
2021/08/26 07:44:05;;;;;;;;;;;;;;;22.57;48.91;100454.94;4971666;28;99146;-73
2021/08/26 07:46:31;;;;;;;;;;;;;;;21.98;50.24;100452.16;4971106;28;97053;-75
2021/08/26 07:48:57;;;;;;;;;;;;;;;23.02;47.33;100454.47;4971762;28;97175;-75
2021/08/26 07:51:23;;;;;;;;;;;;;;;23.82;44.87;100459.53;4970605;28;98987;-72
2021/08/26 07:53:50;;;;;;;;;;;;;;;22.86;45.62;100456.84;4968669;28;99386;-73
2021/08/26 07:56:16;;;;;;;;;;;;;;;21.14;50.54;100466.50;4966282;28;97591;-74
2021/08/26 07:58:42;;;;;;;;;;;;;;;22.18;48.08;100458.50;4961663;28;97413;-75
2021/08/26 08:01:10;;;;;;;;;;;;;;;22.53;46.94;100452.63;4971142;28;99627;-75
2021/08/26 08:03:36;;;;;;;;;;;;;;;22.89;46.14;100453.88;4956388;28;100582;-74
2021/08/26 08:06:03;;;;;;;;;;;;;;;22.74;46.58;100455.25;4975617;28;97122;-73
2021/08/26 08:08:29;;;;;;;;;;;;;;;23.13;44.74;100448.06;4964039;28;96984;-74
2021/08/26 08:10:56;;;;;;;;;;;;;;;22.17;46.58;100441.47;4969818;28;98976;-74
2021/08/26 08:13:22;;;;;;;;;;;;;;;21.61;48.64;100438.31;4971251;28;98842;-74
2021/08/26 08:15:48;;;;;;;;;;;;;;;21.84;47.48;100439.03;4979594;28;96911;-74
2021/08/26 08:18:16;;;;;;;;;;;;;;;21.68;47.74;100439.50;4980777;28;96887;-75
2021/08/26 08:20:43;;;;;;;;;;;;;;;21.54;48.79;100441.66;4977818;28;98852;-73
2021/08/26 08:23:09;;;;;;;;;;;;;;;20.97;49.75;100442.91;4980736;28;98838;-75
2021/08/26 08:25:36;;;;;;;;;;;;;;;21.95;47.68;100440.78;4979713;28;96909;-76
2021/08/26 08:28:02;;;;;;;;;;;;;;;22.73;45.92;100449.03;4974298;28;97038;-75
2021/08/26 08:30:29;;;;;;;;;;;;;;;23.06;44.79;100437.00;4974357;28;99313;-74
2021/08/26 08:32:57;;;;;;;;;;;;;;;23.76;42.89;100436.66;4972469;28;101102;-75
2021/08/26 08:35:25;;;;;;;;;;;;;;;23.34;42.86;100433.47;4973086;28;97128;-74
2021/08/26 08:37:51;;;;;;;;;;;;;;;23.29;43.17;100437.56;4970772;28;97009;-75
2021/08/26 08:40:18;;;;;;;;;;;;;;;22.21;45.29;100442.06;4975279;28;99420;-75
2021/08/26 08:42:44;;;;;;;;;;;;;;;22.19;45.81;100435.94;4969698;28;98793;-74
2021/08/26 08:45:11;;;;;;;;;;;;;;;21.43;47.81;100434.53;4974664;28;96862;-75
2021/08/26 08:47:38;;;;;;;;;;;;;;;20.76;50.79;100450.03;4968669;28;97380;-73
2021/08/26 08:50:05;;;;;;;;;;;;;;;20.41;53.17;100461.84;4972154;28;99207;-74
2021/08/26 08:52:34;;;;;;;;;;;;;;;21.02;52.65;100463.03;4963812;28;99366;-74
2021/08/26 08:55:01;;;;;;;;;;;;;;;20.46;51.93;100470.38;4966569;28;96875;-73
2021/08/26 08:57:27;;;;;;;;;;;;;;;19.89;52.37;100471.31;4965597;28;97733;-74
2021/08/26 08:59:53;;;;;;;;;;;;;;;20.12;52.47;100474.88;4968220;28;99162;-75
2021/08/26 09:02:19;;;;;;;;;;;;;;;20.67;52.53;100478.53;4953383;28;99070;-75
2021/08/26 09:04:56;;;;;;;;;;;;;;;20.71;52.19;100463.84;4966459;28;98643;-73
2021/08/26 09:07:23;;;;;;;;;;;;;;;21.27;51.40;100455.63;4968142;28;97009;-73
2021/08/26 09:09:52;;;;;;;;;;;;;;;21.59;49.03;100450.22;4966112;28;99560;-74
2021/08/26 09:12:18;;;;;;;;;;;;;;;22.22;48.17;100454.53;4963860;28;99307;-73
2021/08/26 09:14:45;;;;;;;;;;;;;;;22.03;48.70;100458.00;4964310;28;98756;-74
2021/08/26 09:17:17;;;;;;;;;;;;;;;22.81;47.70;100459.97;4964843;28;97057;-74
2021/08/26 09:19:44;;;;;;;;;;;;;;;23.34;47.19;100460.41;4963727;28;99091;-76
2021/08/26 09:22:21;;;;;;;;;;;;;;;22.80;46.96;100457.41;4968178;28;98846;-73
2021/08/26 09:24:48;;;;;;;;;;;;;;;22.38;48.64;100460.25;4963458;28;97256;-74
2021/08/26 09:27:35;;;;;;;;;;;;;;;22.43;49.16;100462.53;4966394;28;98154;-73
2021/08/26 09:30:02;;;;;;;;;;;;;;;22.25;49.04;100459.66;4962623;28;99381;-75
2021/08/26 09:32:35;;;;;;;;;;;;;;;21.95;49.28;100449.69;4967550;28;98939;-74
2021/08/26 09:35:12;;;;;;;;;;;;;;;21.50;50.95;100459.91;4963741;28;98403;-73
2021/08/26 09:37:47;;;;;;;;;;;;;;;22.49;49.54;100456.59;4965595;28;98367;-74
2021/08/26 09:40:14;;;;;;;;;;;;;;;22.54;48.79;100451.66;4965154;28;101703;-74
2021/08/26 09:42:42;;;;;;;;;;;;;;;22.56;47.88;100455.06;4966077;28;98806;-73
2021/08/26 09:45:14;;;;;;;;;;;;;;;22.80;45.97;100449.31;4965006;28;97415;-73
2021/08/26 09:47:56;;;;;;;;;;;;;;;23.00;45.80;100457.28;4969871;28;97056;-74
2021/08/26 09:50:33;;;;;;;;;;;;;;;22.35;47.05;100459.66;4971905;28;98980;-74
2021/08/26 09:53:00;;;;;;;;;;;;;;;22.63;44.13;100450.84;4965697;28;98889;-74
2021/08/26 09:55:26;;;;;;;;;;;;;;;23.05;42.51;100446.94;4962502;28;98863;-74
2021/08/26 09:58:12;;;;;;;;;;;;;;;22.52;44.29;100443.69;4967216;28;98726;-75
2021/08/26 10:00:38;;;;;;;;;;;;;;;23.02;42.89;100449.06;4965523;28;101433;-73
2021/08/26 10:03:09;;;;;;;;;;;;;;;22.09;44.82;100441.31;4964303;28;105249;-73
2021/08/26 10:05:36;;;;;;;;;;;;;;;21.95;44.83;100447.00;4961972;28;98574;-72
2021/08/26 10:08:02;;;;;;;;;;;;;;;21.65;45.91;100439.78;4965326;28;98327;-73
2021/08/26 10:10:29;;;;;;;;;;;;;;;22.32;43.97;100455.41;4970802;28;98958;-73
2021/08/26 10:12:55;;;;;;;;;;;;;;;22.03;44.07;100443.69;4967718;28;99438;-73
2021/08/26 10:15:23;;;;;;;;;;;;;;;22.87;42.21;100458.53;4964049;28;97288;-72
2021/08/26 10:17:49;;;;;;;;;;;;;;;22.51;42.16;100460.03;4970448;28;99002;-74
2021/08/26 10:20:16;;;;;;;;;;;;;;;22.02;43.24;100458.13;4971304;28;99373;-73
2021/08/26 10:22:42;;;;;;;;;;;;;;;21.48;45.77;100464.56;4959890;28;99241;-73
2021/08/26 10:25:09;;;;;;;;;;;;;;;22.34;43.46;100468.72;4963224;28;96805;-73
2021/08/26 10:27:36;;;;;;;;;;;;;;;22.58;40.43;100462.00;4964917;28;96889;-73
2021/08/26 10:30:02;;;;;;;;;;;;;;;22.45;40.32;100461.38;4965215;28;99193;-73
2021/08/26 10:32:29;;;;;;;;;;;;;;;22.90;40.02;100464.53;4965622;28;98975;-75
2021/08/26 10:35:04;;;;;;;;;;;;;;;22.05;41.21;100463.25;4967878;28;96824;-74
2021/08/26 10:37:43;;;;;;;;;;;;;;;22.77;41.22;100476.56;4965156;28;98850;-74
2021/08/26 10:40:27;;;;;;;;;;;;;;;22.02;43.38;100463.50;4962992;28;98867;-74
2021/08/26 10:42:54;;;;;;;;;;;;;;;22.27;44.65;100474.66;4967748;28;98780;-74
2021/08/26 10:45:25;;;;;;;;;;;;;;;22.68;44.19;100462.03;4966926;28;97290;-74
2021/08/26 10:48:25;;;;;;;;;;;;;;;23.19;43.31;100463.66;4964732;28;97533;-74
2021/08/26 10:51:11;;;;;;;;;;;;;;;22.67;42.28;100461.19;4965353;28;98258;-73
2021/08/26 10:53:44;;;;;;;;;;;;;;;22.77;41.63;100460.38;4970772;28;98888;-73
2021/08/26 10:56:31;;;;;;;;;;;;;;;22.49;40.55;100459.28;4973857;28;96826;-74
2021/08/26 10:58:58;;;;;;;;;;;;;;;22.10;41.18;100461.00;4971060;28;97722;-74
2021/08/26 11:01:35;;;;;;;;;;;;;;;21.81;41.01;100456.28;4974635;28;98963;-74
2021/08/26 11:04:02;;;;;;;;;;;;;;;22.17;41.38;100462.16;4968270;28;98900;-73
2021/08/26 11:06:38;;;;;;;;;;;;;;;21.82;41.05;100452.59;4969468;28;96952;-73
2021/08/26 11:09:23;;;;;;;;;;;;;;;22.43;40.40;100463.38;4970094;28;97529;-73
2021/08/26 11:11:57;;;;;;;;;;;;;;;22.96;40.22;100466.66;4965221;28;99096;-74
2021/08/26 11:14:25;;;;;;;;;;;;;;;23.33;39.31;100453.31;4965463;28;98876;-72
2021/08/26 11:16:53;;;;;;;;;;;;;;;23.34;38.98;100456.88;4969510;28;96865;-73
2021/08/26 11:19:38;;;;;;;;;;;;;;;23.73;38.63;100452.28;4968677;28;96899;-74
2021/08/26 11:22:08;;;;;;;;;;;;;;;23.40;38.18;100454.44;4963323;28;99056;-73
2021/08/26 11:24:53;;;;;;;;;;;;;;;22.90;37.56;100452.91;4962130;28;99126;-74
2021/08/26 11:27:20;;;;;;;;;;;;;;;23.83;36.88;100450.41;4969457;28;97394;-74
2021/08/26 11:29:46;;;;;;;;;;;;;;;24.14;36.42;100457.28;4972048;28;97368;-74
2021/08/26 11:32:14;;;;;;;;;;;;;;;22.84;38.60;100462.34;4971040;28;98913;-74
2021/08/26 11:34:41;;;;;;;;;;;;;;;23.16;39.10;100462.13;4972158;28;99360;-74
2021/08/26 11:37:09;;;;;;;;;;;;;;;22.64;39.94;100455.22;4973654;28;96826;-74
2021/08/26 11:39:37;;;;;;;;;;;;;;;22.17;40.54;100467.53;4973248;28;96899;-75
2021/08/26 11:42:04;;;;;;;;;;;;;;;22.34;40.24;100480.34;4971993;28;99334;-74
2021/08/26 11:44:31;;;;;;;;;;;;;;;22.07;40.90;100472.88;4971921;28;99323;-74
2021/08/26 11:46:58;;;;;;;;;;;;;;;22.30;40.18;100484.31;4964693;28;97547;-73
2021/08/26 11:49:32;;;;;;;;;;;;;;;21.62;40.84;100480.38;4980383;28;97258;-74
2021/08/26 11:52:03;;;;;;;;;;;;;;;22.41;39.53;100484.19;4973527;28;96910;-74
2021/08/26 11:54:35;;;;;;;;;;;;;;;22.06;40.39;100478.38;4975899;28;99203;-74
2021/08/26 11:57:01;;;;;;;;;;;;;;;21.86;40.51;100469.31;4969686;28;97067;-74
2021/08/26 11:59:29;;;;;;;;;;;;;;;21.41;42.24;100466.06;4980803;28;98109;-74
2021/08/26 12:02:13;;;;;;;;;;;;;;;22.09;41.01;100475.44;4977731;28;98100;-74
2021/08/26 12:04:40;;;;;;;;;;;;;;;21.80;41.49;100470.69;4971927;28;98124;-74
2021/08/26 12:07:06;;;;;;;;;;;;;;;21.86;41.53;100478.25;4968094;28;96915;-76
2021/08/26 12:09:34;;;;;;;;;;;;;;;21.81;41.42;100477.78;4974775;28;97289;-74
2021/08/26 12:12:07;;;;;;;;;;;;;;;22.53;40.14;100482.25;4973425;28;99253;-75
2021/08/26 12:14:34;;;;;;;;;;;;;;;23.23;39.08;100479.44;4973949;28;98728;-74
2021/08/26 12:17:09;;;;;;;;;;;;;;;22.46;40.27;100468.47;4974311;28;96759;-77
2021/08/26 12:19:35;;;;;;;;;;;;;;;22.90;39.67;100478.00;4973150;28;96971;-74
2021/08/26 12:22:02;;;;;;;;;;;;;;;23.12;39.56;100468.78;4973484;28;99103;-74
2021/08/26 12:24:28;;;;;;;;;;;;;;;22.34;40.60;100469.59;4974184;28;98815;-75
2021/08/26 12:26:56;;;;;;;;;;;;;;;22.90;39.56;100469.91;4974498;28;96892;-73
2021/08/26 12:29:23;;;;;;;;;;;;;;;23.49;39.25;100473.50;4974509;28;96921;-74
2021/08/26 12:31:50;;;;;;;;;;;;;;;23.74;38.30;100464.78;4972722;28;99216;-74
2021/08/26 12:34:16;;;;;;;;;;;;;;;23.79;38.21;100470.59;4973114;28;98831;-77
2021/08/26 12:36:43;;;;;;;;;;;;;;;23.14;39.82;100471.34;4973895;28;97742;-75
2021/08/26 12:39:17;;;;;;;;;;;;;;;22.97;39.12;100471.03;4973977;28;96974;-73
2021/08/26 12:41:43;;;;;;;;;;;;;;;22.79;38.96;100470.00;4972921;28;98996;-74
2021/08/26 12:44:25;;;;;;;;;;;;;;;23.57;38.62;100462.81;4973711;28;98868;-73